sensor_id;sensor_type;location;lat;lon;timestamp;pressure;altitude;pressure_sealevel;temperature;humidity
55679;BME280;41573;51.446;-2.018;2023-07-24T00:02:03;99704.16;;;18.31;100.00
55679;BME280;41573;51.446;-2.018;2023-07-24T00:04:30;99714.06;;;18.31;100.00
55679;BME280;41573;51.446;-2.018;2023-07-24T00:06:56;99709.03;;;18.27;100.00
55679;BME280;41573;51.446;-2.018;2023-07-24T00:09:21;99710.06;;;18.26;100.00
55679;BME280;41573;51.446;-2.018;2023-07-24T00:11:46;99709.84;;;18.20;100.00
55679;BME280;41573;51.446;-2.018;2023-07-24T00:14:12;99711.53;;;18.21;100.00
55679;BME280;41573;51.446;-2.018;2023-07-24T00:16:38;99707.16;;;18.20;100.00
55679;BME280;41573;51.446;-2.018;2023-07-24T00:19:06;99700.44;;;18.24;100.00
55679;BME280;41573;51.446;-2.018;2023-07-24T00:21:31;99698.56;;;18.24;100.00
55679;BME280;41573;51.446;-2.018;2023-07-24T00:23:57;99699.09;;;18.28;100.00
55679;BME280;41573;51.446;-2.018;2023-07-24T00:26:22;99695.72;;;18.26;100.00
55679;BME280;41573;51.446;-2.018;2023-07-24T00:28:47;99693.53;;;18.30;100.00
55679;BME280;41573;51.446;-2.018;2023-07-24T00:31:13;99681.72;;;18.31;100.00
55679;BME280;41573;51.446;-2.018;2023-07-24T00:33:38;99681.91;;;18.29;100.00
55679;BME280;41573;51.446;-2.018;2023-07-24T00:36:04;99680.22;;;18.36;100.00
55679;BME280;41573;51.446;-2.018;2023-07-24T00:38:29;99678.91;;;18.32;100.00
55679;BME280;41573;51.446;-2.018;2023-07-24T00:40:54;99675.19;;;18.33;100.00
55679;BME280;41573;51.446;-2.018;2023-07-24T00:43:20;99667.09;;;18.33;100.00
55679;BME280;41573;51.446;-2.018;2023-07-24T00:45:46;99674.84;;;18.36;100.00
55679;BME280;41573;51.446;-2.018;2023-07-24T00:48:12;99678.03;;;18.32;100.00
55679;BME280;41573;51.446;-2.018;2023-07-24T00:50:39;99674.84;;;18.28;100.00
55679;BME280;41573;51.446;-2.018;2023-07-24T00:53:06;99669.94;;;18.32;100.00
55679;BME280;41573;51.446;-2.018;2023-07-24T00:55:32;99668.13;;;18.32;100.00
55679;BME280;41573;51.446;-2.018;2023-07-24T00:57:58;99672.47;;;18.33;100.00
55679;BME280;41573;51.446;-2.018;2023-07-24T01:00:25;99665.72;;;18.29;100.00
55679;BME280;41573;51.446;-2.018;2023-07-24T01:02:51;99660.34;;;18.29;100.00
55679;BME280;41573;51.446;-2.018;2023-07-24T01:05:17;99663.38;;;18.26;100.00
55679;BME280;41573;51.446;-2.018;2023-07-24T01:07:43;99670.13;;;18.30;100.00
55679;BME280;41573;51.446;-2.018;2023-07-24T01:10:08;99654.63;;;18.24;100.00
55679;BME280;41573;51.446;-2.018;2023-07-24T01:15:12;99654.44;;;18.25;100.00
55679;BME280;41573;51.446;-2.018;2023-07-24T01:18:03;99655.81;;;18.30;100.00
55679;BME280;41573;51.446;-2.018;2023-07-24T01:20:31;99651.75;;;18.25;100.00
55679;BME280;41573;51.446;-2.018;2023-07-24T01:25:57;99647.69;;;18.21;100.00
55679;BME280;41573;51.446;-2.018;2023-07-24T01:28:24;99640.44;;;18.22;100.00
55679;BME280;41573;51.446;-2.018;2023-07-24T01:30:49;99641.16;;;18.24;100.00
55679;BME280;41573;51.446;-2.018;2023-07-24T01:33:15;99641.97;;;18.24;100.00
55679;BME280;41573;51.446;-2.018;2023-07-24T01:35:42;99628.34;;;18.26;100.00
55679;BME280;41573;51.446;-2.018;2023-07-24T01:38:10;99640.44;;;18.22;100.00
55679;BME280;41573;51.446;-2.018;2023-07-24T01:40:38;99636.09;;;18.29;100.00
55679;BME280;41573;51.446;-2.018;2023-07-24T01:43:04;99626.81;;;18.23;100.00
55679;BME280;41573;51.446;-2.018;2023-07-24T01:45:29;99633.41;;;18.21;100.00
55679;BME280;41573;51.446;-2.018;2023-07-24T01:47:54;99625.28;;;18.13;100.00
55679;BME280;41573;51.446;-2.018;2023-07-24T01:50:20;99621.59;;;18.14;100.00
55679;BME280;41573;51.446;-2.018;2023-07-24T01:52:45;99625.97;;;18.15;100.00
55679;BME280;41573;51.446;-2.018;2023-07-24T01:55:10;99619.72;;;18.14;100.00
55679;BME280;41573;51.446;-2.018;2023-07-24T01:57:36;99620.56;;;18.15;100.00
55679;BME280;41573;51.446;-2.018;2023-07-24T02:00:01;99617.41;;;18.19;100.00
55679;BME280;41573;51.446;-2.018;2023-07-24T02:02:27;99612.84;;;18.20;100.00
55679;BME280;41573;51.446;-2.018;2023-07-24T02:04:52;99611.16;;;18.19;100.00
55679;BME280;41573;51.446;-2.018;2023-07-24T02:07:17;99621.25;;;18.17;100.00
55679;BME280;41573;51.446;-2.018;2023-07-24T02:09:43;99616.88;;;18.16;100.00
55679;BME280;41573;51.446;-2.018;2023-07-24T02:12:08;99613.19;;;18.17;100.00
55679;BME280;41573;51.446;-2.018;2023-07-24T02:14:33;99608.78;;;18.16;100.00
55679;BME280;41573;51.446;-2.018;2023-07-24T02:16:59;99609.81;;;18.23;100.00
55679;BME280;41573;51.446;-2.018;2023-07-24T02:19:24;99610.47;;;18.17;100.00
55679;BME280;41573;51.446;-2.018;2023-07-24T02:21:49;99609.47;;;18.09;100.00
55679;BME280;41573;51.446;-2.018;2023-07-24T02:24:15;99615.84;;;18.08;100.00
55679;BME280;41573;51.446;-2.018;2023-07-24T02:26:40;99614.16;;;18.07;100.00
55679;BME280;41573;51.446;-2.018;2023-07-24T02:29:05;99605.25;;;18.07;100.00
55679;BME280;41573;51.446;-2.018;2023-07-24T02:31:31;99602.84;;;17.96;100.00
55679;BME280;41573;51.446;-2.018;2023-07-24T02:33:56;99606.75;;;18.01;100.00
55679;BME280;41573;51.446;-2.018;2023-07-24T02:36:21;99614.50;;;18.04;100.00
55679;BME280;41573;51.446;-2.018;2023-07-24T02:38:47;99616.84;;;18.07;100.00
55679;BME280;41573;51.446;-2.018;2023-07-24T02:41:12;99606.06;;;18.07;100.00
55679;BME280;41573;51.446;-2.018;2023-07-24T02:43:37;99606.31;;;17.88;100.00
55679;BME280;41573;51.446;-2.018;2023-07-24T02:46:03;99605.47;;;17.87;100.00
55679;BME280;41573;51.446;-2.018;2023-07-24T02:48:28;99602.50;;;17.90;100.00
55679;BME280;41573;51.446;-2.018;2023-07-24T02:50:54;99603.63;;;17.88;100.00
55679;BME280;41573;51.446;-2.018;2023-07-24T02:53:19;99601.09;;;17.78;100.00
55679;BME280;41573;51.446;-2.018;2023-07-24T02:55:45;99608.69;;;17.83;100.00
55679;BME280;41573;51.446;-2.018;2023-07-24T02:58:13;99605.81;;;17.84;100.00
55679;BME280;41573;51.446;-2.018;2023-07-24T03:00:39;99597.03;;;17.74;100.00
55679;BME280;41573;51.446;-2.018;2023-07-24T03:03:05;99600.72;;;17.73;100.00
55679;BME280;41573;51.446;-2.018;2023-07-24T03:05:31;99601.41;;;17.75;100.00
55679;BME280;41573;51.446;-2.018;2023-07-24T03:07:56;99600.19;;;17.69;100.00
55679;BME280;41573;51.446;-2.018;2023-07-24T03:10:22;99605.94;;;17.74;100.00
55679;BME280;41573;51.446;-2.018;2023-07-24T03:12:48;99607.13;;;17.72;100.00
55679;BME280;41573;51.446;-2.018;2023-07-24T03:15:13;99611.13;;;17.68;100.00
55679;BME280;41573;51.446;-2.018;2023-07-24T03:17:39;99605.59;;;17.69;100.00
55679;BME280;41573;51.446;-2.018;2023-07-24T03:20:22;99599.53;;;17.67;100.00
55679;BME280;41573;51.446;-2.018;2023-07-24T03:22:47;99602.06;;;17.69;100.00
55679;BME280;41573;51.446;-2.018;2023-07-24T03:25:13;99598.38;;;17.70;100.00
55679;BME280;41573;51.446;-2.018;2023-07-24T03:27:38;99600.53;;;17.66;100.00
55679;BME280;41573;51.446;-2.018;2023-07-24T03:30:04;99596.13;;;17.65;100.00
55679;BME280;41573;51.446;-2.018;2023-07-24T03:32:30;99599.31;;;17.61;100.00
55679;BME280;41573;51.446;-2.018;2023-07-24T03:34:55;99592.56;;;17.56;100.00
55679;BME280;41573;51.446;-2.018;2023-07-24T03:37:21;99600.19;;;17.61;100.00
55679;BME280;41573;51.446;-2.018;2023-07-24T03:39:46;99596.31;;;17.64;100.00
55679;BME280;41573;51.446;-2.018;2023-07-24T03:42:11;99598.00;;;17.65;100.00
55679;BME280;41573;51.446;-2.018;2023-07-24T03:44:39;99595.81;;;17.60;100.00
55679;BME280;41573;51.446;-2.018;2023-07-24T03:47:05;99605.88;;;17.58;100.00
55679;BME280;41573;51.446;-2.018;2023-07-24T03:49:30;99593.44;;;17.57;100.00
55679;BME280;41573;51.446;-2.018;2023-07-24T03:51:56;99596.81;;;17.59;100.00
55679;BME280;41573;51.446;-2.018;2023-07-24T03:54:21;99594.28;;;17.57;100.00
55679;BME280;41573;51.446;-2.018;2023-07-24T03:56:46;99601.19;;;17.60;100.00
55679;BME280;41573;51.446;-2.018;2023-07-24T03:59:11;99603.19;;;17.58;100.00
55679;BME280;41573;51.446;-2.018;2023-07-24T04:01:37;99603.56;;;17.63;100.00
55679;BME280;41573;51.446;-2.018;2023-07-24T04:04:03;99604.53;;;17.62;100.00
55679;BME280;41573;51.446;-2.018;2023-07-24T04:06:28;99609.94;;;17.62;100.00
55679;BME280;41573;51.446;-2.018;2023-07-24T04:08:53;99611.59;;;17.55;100.00
55679;BME280;41573;51.446;-2.018;2023-07-24T04:11:19;99615.31;;;17.54;100.00
55679;BME280;41573;51.446;-2.018;2023-07-24T04:13:44;99621.19;;;17.57;100.00
55679;BME280;41573;51.446;-2.018;2023-07-24T04:16:09;99611.91;;;17.52;100.00
55679;BME280;41573;51.446;-2.018;2023-07-24T04:18:35;99617.63;;;17.49;100.00
55679;BME280;41573;51.446;-2.018;2023-07-24T04:21:00;99617.94;;;17.46;100.00
55679;BME280;41573;51.446;-2.018;2023-07-24T04:23:25;99617.09;;;17.45;100.00
55679;BME280;41573;51.446;-2.018;2023-07-24T04:25:51;99611.69;;;17.45;100.00
55679;BME280;41573;51.446;-2.018;2023-07-24T04:28:16;99614.06;;;17.40;100.00
55679;BME280;41573;51.446;-2.018;2023-07-24T04:30:41;99615.22;;;17.37;100.00
55679;BME280;41573;51.446;-2.018;2023-07-24T04:33:07;99619.16;;;17.25;100.00
55679;BME280;41573;51.446;-2.018;2023-07-24T04:35:32;99621.69;;;17.18;100.00
55679;BME280;41573;51.446;-2.018;2023-07-24T04:37:57;99611.09;;;17.25;100.00
55679;BME280;41573;51.446;-2.018;2023-07-24T04:40:23;99621.53;;;17.28;100.00
55679;BME280;41573;51.446;-2.018;2023-07-24T04:42:49;99624.94;;;17.30;100.00
55679;BME280;41573;51.446;-2.018;2023-07-24T04:45:14;99620.38;;;17.31;100.00
55679;BME280;41573;51.446;-2.018;2023-07-24T04:47:41;99626.31;;;17.34;100.00
55679;BME280;41573;51.446;-2.018;2023-07-24T04:50:07;99624.28;;;17.36;100.00
55679;BME280;41573;51.446;-2.018;2023-07-24T04:52:32;99629.00;;;17.34;100.00
55679;BME280;41573;51.446;-2.018;2023-07-24T04:54:58;99625.59;;;17.32;100.00
55679;BME280;41573;51.446;-2.018;2023-07-24T04:57:23;99631.69;;;17.34;100.00
55679;BME280;41573;51.446;-2.018;2023-07-24T04:59:48;99634.88;;;17.38;100.00
55679;BME280;41573;51.446;-2.018;2023-07-24T05:02:14;99634.69;;;17.31;100.00
55679;BME280;41573;51.446;-2.018;2023-07-24T05:04:39;99629.00;;;17.34;100.00
55679;BME280;41573;51.446;-2.018;2023-07-24T05:07:05;99631.34;;;17.37;100.00
55679;BME280;41573;51.446;-2.018;2023-07-24T05:09:30;99640.09;;;17.39;100.00
55679;BME280;41573;51.446;-2.018;2023-07-24T05:11:55;99639.06;;;17.32;100.00
55679;BME280;41573;51.446;-2.018;2023-07-24T05:14:21;99653.22;;;17.34;100.00
55679;BME280;41573;51.446;-2.018;2023-07-24T05:16:46;99652.16;;;17.27;100.00
55679;BME280;41573;51.446;-2.018;2023-07-24T05:19:11;99656.34;;;17.30;100.00
55679;BME280;41573;51.446;-2.018;2023-07-24T05:21:37;99657.22;;;17.30;100.00
55679;BME280;41573;51.446;-2.018;2023-07-24T05:24:02;99665.97;;;17.32;100.00
55679;BME280;41573;51.446;-2.018;2023-07-24T05:26:27;99667.34;;;17.36;100.00
55679;BME280;41573;51.446;-2.018;2023-07-24T05:28:53;99664.81;;;17.35;100.00
55679;BME280;41573;51.446;-2.018;2023-07-24T05:31:18;99656.56;;;17.36;100.00
55679;BME280;41573;51.446;-2.018;2023-07-24T05:33:44;99647.19;;;17.40;100.00
55679;BME280;41573;51.446;-2.018;2023-07-24T05:36:09;99656.78;;;17.43;100.00
55679;BME280;41573;51.446;-2.018;2023-07-24T05:38:35;99646.06;;;17.51;100.00
55679;BME280;41573;51.446;-2.018;2023-07-24T05:41:02;99655.81;;;17.52;100.00
55679;BME280;41573;51.446;-2.018;2023-07-24T05:43:28;99654.66;;;17.55;100.00
55679;BME280;41573;51.446;-2.018;2023-07-24T05:45:55;99651.47;;;17.60;100.00
55679;BME280;41573;51.446;-2.018;2023-07-24T05:48:20;99654.31;;;17.58;100.00
55679;BME280;41573;51.446;-2.018;2023-07-24T05:50:46;99652.34;;;17.60;100.00
55679;BME280;41573;51.446;-2.018;2023-07-24T05:53:12;99653.38;;;17.67;100.00
55679;BME280;41573;51.446;-2.018;2023-07-24T05:55:38;99660.75;;;17.65;100.00
55679;BME280;41573;51.446;-2.018;2023-07-24T05:58:03;99660.63;;;17.67;100.00
55679;BME280;41573;51.446;-2.018;2023-07-24T06:00:28;99653.72;;;17.64;100.00
55679;BME280;41573;51.446;-2.018;2023-07-24T06:02:54;99659.03;;;17.56;100.00
55679;BME280;41573;51.446;-2.018;2023-07-24T06:05:19;99658.22;;;17.64;100.00
55679;BME280;41573;51.446;-2.018;2023-07-24T06:07:48;99665.47;;;17.63;100.00
55679;BME280;41573;51.446;-2.018;2023-07-24T06:10:13;99664.16;;;17.67;100.00
55679;BME280;41573;51.446;-2.018;2023-07-24T06:12:39;99667.50;;;17.69;100.00
55679;BME280;41573;51.446;-2.018;2023-07-24T06:15:05;99668.84;;;17.65;100.00
55679;BME280;41573;51.446;-2.018;2023-07-24T06:17:31;99678.59;;;17.66;100.00
55679;BME280;41573;51.446;-2.018;2023-07-24T06:19:57;99674.91;;;17.67;100.00
55679;BME280;41573;51.446;-2.018;2023-07-24T06:22:23;99672.72;;;17.63;100.00
55679;BME280;41573;51.446;-2.018;2023-07-24T06:24:48;99681.66;;;17.71;100.00
55679;BME280;41573;51.446;-2.018;2023-07-24T06:27:13;99676.63;;;17.68;100.00
55679;BME280;41573;51.446;-2.018;2023-07-24T06:29:39;99670.41;;;17.76;100.00
55679;BME280;41573;51.446;-2.018;2023-07-24T06:32:05;99680.69;;;17.81;100.00
55679;BME280;41573;51.446;-2.018;2023-07-24T06:34:30;99678.69;;;17.83;100.00
55679;BME280;41573;51.446;-2.018;2023-07-24T06:36:55;99678.03;;;17.89;100.00
55679;BME280;41573;51.446;-2.018;2023-07-24T06:39:21;99681.47;;;17.91;100.00
55679;BME280;41573;51.446;-2.018;2023-07-24T06:41:46;99682.28;;;17.91;100.00
55679;BME280;41573;51.446;-2.018;2023-07-24T06:44:12;99687.34;;;17.95;100.00
55679;BME280;41573;51.446;-2.018;2023-07-24T06:46:37;99681.97;;;17.95;100.00
55679;BME280;41573;51.446;-2.018;2023-07-24T06:49:03;99683.34;;;17.99;100.00
55679;BME280;41573;51.446;-2.018;2023-07-24T06:51:28;99683.88;;;18.02;100.00
55679;BME280;41573;51.446;-2.018;2023-07-24T06:53:53;99688.72;;;17.99;100.00
55679;BME280;41573;51.446;-2.018;2023-07-24T06:56:19;99682.78;;;17.95;100.00
55679;BME280;41573;51.446;-2.018;2023-07-24T06:58:44;99686.13;;;17.89;100.00
55679;BME280;41573;51.446;-2.018;2023-07-24T07:01:09;99687.13;;;17.88;100.00
55679;BME280;41573;51.446;-2.018;2023-07-24T07:03:35;99689.13;;;17.86;100.00
55679;BME280;41573;51.446;-2.018;2023-07-24T07:06:01;99682.75;;;17.87;100.00
55679;BME280;41573;51.446;-2.018;2023-07-24T07:08:27;99701.25;;;17.82;100.00
55679;BME280;41573;51.446;-2.018;2023-07-24T07:10:59;99697.19;;;17.78;100.00
55679;BME280;41573;51.446;-2.018;2023-07-24T07:13:26;99698.03;;;17.78;100.00
55679;BME280;41573;51.446;-2.018;2023-07-24T07:15:51;99705.75;;;17.73;100.00
55679;BME280;41573;51.446;-2.018;2023-07-24T07:18:16;99702.63;;;17.60;100.00
55679;BME280;41573;51.446;-2.018;2023-07-24T07:20:46;99716.63;;;17.63;100.00
55679;BME280;41573;51.446;-2.018;2023-07-24T07:23:11;99722.22;;;17.44;100.00
55679;BME280;41573;51.446;-2.018;2023-07-24T07:25:37;99731.00;;;17.46;100.00
55679;BME280;41573;51.446;-2.018;2023-07-24T07:28:02;99728.63;;;17.43;100.00
55679;BME280;41573;51.446;-2.018;2023-07-24T07:30:27;99735.78;;;17.34;100.00
55679;BME280;41573;51.446;-2.018;2023-07-24T07:32:53;99738.78;;;17.31;100.00
55679;BME280;41573;51.446;-2.018;2023-07-24T07:35:18;99744.97;;;17.23;100.00
55679;BME280;41573;51.446;-2.018;2023-07-24T07:37:43;99743.41;;;17.20;100.00
55679;BME280;41573;51.446;-2.018;2023-07-24T07:40:09;99747.84;;;16.76;100.00
55679;BME280;41573;51.446;-2.018;2023-07-24T07:42:34;99754.84;;;16.68;100.00
55679;BME280;41573;51.446;-2.018;2023-07-24T07:45:00;99753.00;;;16.69;100.00
55679;BME280;41573;51.446;-2.018;2023-07-24T07:47:25;99753.63;;;16.81;100.00
55679;BME280;41573;51.446;-2.018;2023-07-24T07:49:50;99753.88;;;16.87;100.00
55679;BME280;41573;51.446;-2.018;2023-07-24T07:52:16;99752.22;;;16.77;100.00
55679;BME280;41573;51.446;-2.018;2023-07-24T07:54:48;99757.38;;;16.70;100.00
55679;BME280;41573;51.446;-2.018;2023-07-24T07:57:14;99762.22;;;16.66;100.00
55679;BME280;41573;51.446;-2.018;2023-07-24T07:59:39;99767.72;;;16.47;100.00
55679;BME280;41573;51.446;-2.018;2023-07-24T08:02:06;99759.84;;;16.35;100.00
55679;BME280;41573;51.446;-2.018;2023-07-24T08:04:31;99767.91;;;16.35;100.00
55679;BME280;41573;51.446;-2.018;2023-07-24T08:06:56;99766.31;;;16.43;100.00
55679;BME280;41573;51.446;-2.018;2023-07-24T08:09:22;99766.31;;;16.43;100.00
55679;BME280;41573;51.446;-2.018;2023-07-24T08:11:49;99774.16;;;16.54;100.00
55679;BME280;41573;51.446;-2.018;2023-07-24T08:14:14;99769.16;;;16.41;100.00
55679;BME280;41573;51.446;-2.018;2023-07-24T08:16:40;99767.19;;;16.43;100.00
55679;BME280;41573;51.446;-2.018;2023-07-24T08:19:05;99772.56;;;16.43;100.00
55679;BME280;41573;51.446;-2.018;2023-07-24T08:21:30;99774.47;;;16.51;100.00
55679;BME280;41573;51.446;-2.018;2023-07-24T08:23:56;99779.84;;;16.51;100.00
55679;BME280;41573;51.446;-2.018;2023-07-24T08:26:22;99772.78;;;16.50;100.00
55679;BME280;41573;51.446;-2.018;2023-07-24T08:28:49;99780.41;;;16.54;100.00
55679;BME280;41573;51.446;-2.018;2023-07-24T08:31:15;99779.25;;;16.57;100.00
55679;BME280;41573;51.446;-2.018;2023-07-24T08:33:40;99773.69;;;16.41;100.00
55679;BME280;41573;51.446;-2.018;2023-07-24T08:36:07;99780.78;;;16.60;100.00
55679;BME280;41573;51.446;-2.018;2023-07-24T08:38:34;99778.25;;;16.58;100.00
55679;BME280;41573;51.446;-2.018;2023-07-24T08:41:06;99780.41;;;16.72;100.00
55679;BME280;41573;51.446;-2.018;2023-07-24T08:43:36;99786.81;;;16.71;100.00
55679;BME280;41573;51.446;-2.018;2023-07-24T08:46:02;99789.34;;;16.73;100.00
55679;BME280;41573;51.446;-2.018;2023-07-24T08:48:33;99791.34;;;16.71;100.00
55679;BME280;41573;51.446;-2.018;2023-07-24T08:51:11;99789.88;;;16.77;100.00
55679;BME280;41573;51.446;-2.018;2023-07-24T08:53:38;99792.72;;;16.75;100.00
55679;BME280;41573;51.446;-2.018;2023-07-24T08:56:05;99793.19;;;16.70;100.00
55679;BME280;41573;51.446;-2.018;2023-07-24T08:58:31;99798.16;;;16.65;100.00
55679;BME280;41573;51.446;-2.018;2023-07-24T09:00:57;99797.16;;;16.66;100.00
55679;BME280;41573;51.446;-2.018;2023-07-24T09:03:23;99800.53;;;16.68;100.00
55679;BME280;41573;51.446;-2.018;2023-07-24T09:05:48;99797.06;;;16.58;100.00
55679;BME280;41573;51.446;-2.018;2023-07-24T09:08:14;99795.84;;;16.25;100.00
55679;BME280;41573;51.446;-2.018;2023-07-24T09:10:39;99794.63;;;16.37;100.00
55679;BME280;41573;51.446;-2.018;2023-07-24T09:13:05;99783.81;;;15.91;100.00
55679;BME280;41573;51.446;-2.018;2023-07-24T09:15:41;99771.94;;;15.94;100.00
55679;BME280;41573;51.446;-2.018;2023-07-24T09:18:06;99757.41;;;15.87;100.00
55679;BME280;41573;51.446;-2.018;2023-07-24T09:20:39;99751.59;;;15.91;100.00
55679;BME280;41573;51.446;-2.018;2023-07-24T09:23:05;99744.22;;;15.93;100.00
55679;BME280;41573;51.446;-2.018;2023-07-24T09:25:31;99756.59;;;16.14;100.00
55679;BME280;41573;51.446;-2.018;2023-07-24T09:27:58;99756.03;;;16.10;100.00
55679;BME280;41573;51.446;-2.018;2023-07-24T09:30:23;99748.03;;;16.28;100.00
55679;BME280;41573;51.446;-2.018;2023-07-24T09:32:54;99746.31;;;16.27;100.00
55679;BME280;41573;51.446;-2.018;2023-07-24T09:35:20;99753.69;;;16.25;100.00
55679;BME280;41573;51.446;-2.018;2023-07-24T09:37:51;99755.03;;;16.11;100.00
55679;BME280;41573;51.446;-2.018;2023-07-24T09:40:16;99760.16;;;16.32;100.00
55679;BME280;41573;51.446;-2.018;2023-07-24T09:42:42;99755.03;;;16.39;100.00
55679;BME280;41573;51.446;-2.018;2023-07-24T09:45:08;99759.81;;;16.45;100.00
55679;BME280;41573;51.446;-2.018;2023-07-24T09:47:34;99765.19;;;16.45;100.00
55679;BME280;41573;51.446;-2.018;2023-07-24T09:50:03;99772.47;;;16.53;100.00
55679;BME280;41573;51.446;-2.018;2023-07-24T09:52:29;99780.47;;;16.45;100.00
55679;BME280;41573;51.446;-2.018;2023-07-24T09:54:59;99779.91;;;16.41;100.00
55679;BME280;41573;51.446;-2.018;2023-07-24T09:57:30;99789.56;;;16.34;100.00
55679;BME280;41573;51.446;-2.018;2023-07-24T09:59:57;99796.38;;;16.28;100.00
55679;BME280;41573;51.446;-2.018;2023-07-24T10:02:24;99799.53;;;16.24;100.00
55679;BME280;41573;51.446;-2.018;2023-07-24T10:04:50;99803.16;;;16.32;100.00
55679;BME280;41573;51.446;-2.018;2023-07-24T10:07:16;99805.69;;;16.34;100.00
55679;BME280;41573;51.446;-2.018;2023-07-24T10:09:46;99804.88;;;16.24;100.00
55679;BME280;41573;51.446;-2.018;2023-07-24T10:12:12;99813.59;;;16.35;100.00
55679;BME280;41573;51.446;-2.018;2023-07-24T10:14:38;99815.00;;;16.40;100.00
55679;BME280;41573;51.446;-2.018;2023-07-24T10:17:04;99827.03;;;16.35;100.00
55679;BME280;41573;51.446;-2.018;2023-07-24T10:20:01;99827.03;;;16.35;100.00
55679;BME280;41573;51.446;-2.018;2023-07-24T10:22:27;99835.09;;;16.35;100.00
55679;BME280;41573;51.446;-2.018;2023-07-24T10:24:55;99836.78;;;16.36;100.00
55679;BME280;41573;51.446;-2.018;2023-07-24T10:27:24;99832.78;;;16.50;100.00
55679;BME280;41573;51.446;-2.018;2023-07-24T10:30:04;99839.41;;;16.56;100.00
55679;BME280;41573;51.446;-2.018;2023-07-24T10:32:30;99838.94;;;16.61;100.00
55679;BME280;41573;51.446;-2.018;2023-07-24T10:34:58;99839.09;;;16.59;100.00
55679;BME280;41573;51.446;-2.018;2023-07-24T10:37:37;99840.91;;;16.59;100.00
55679;BME280;41573;51.446;-2.018;2023-07-24T10:40:04;99845.97;;;16.71;100.00
55679;BME280;41573;51.446;-2.018;2023-07-24T10:42:30;99844.38;;;16.79;100.00
55679;BME280;41573;51.446;-2.018;2023-07-24T10:45:22;99852.63;;;16.95;100.00
55679;BME280;41573;51.446;-2.018;2023-07-24T10:47:47;99856.50;;;17.11;100.00
55679;BME280;41573;51.446;-2.018;2023-07-24T10:50:13;99862.56;;;17.13;100.00
55679;BME280;41573;51.446;-2.018;2023-07-24T10:52:38;99856.56;;;17.19;100.00
55679;BME280;41573;51.446;-2.018;2023-07-24T10:55:04;99867.66;;;17.16;100.00
55679;BME280;41573;51.446;-2.018;2023-07-24T10:57:30;99858.97;;;17.22;100.00
55679;BME280;41573;51.446;-2.018;2023-07-24T10:59:55;99866.63;;;17.17;100.00
55679;BME280;41573;51.446;-2.018;2023-07-24T11:02:21;99878.78;;;17.21;100.00
55679;BME280;41573;51.446;-2.018;2023-07-24T11:04:46;99873.41;;;17.21;100.00
55679;BME280;41573;51.446;-2.018;2023-07-24T11:07:12;99876.50;;;17.26;100.00
55679;BME280;41573;51.446;-2.018;2023-07-24T11:09:39;99882.69;;;17.27;100.00
55679;BME280;41573;51.446;-2.018;2023-07-24T11:12:17;99885.88;;;17.22;100.00
55679;BME280;41573;51.446;-2.018;2023-07-24T11:14:50;99897.38;;;17.32;100.00
55679;BME280;41573;51.446;-2.018;2023-07-24T11:17:16;99899.34;;;17.40;100.00
55679;BME280;41573;51.446;-2.018;2023-07-24T11:19:42;99897.56;;;17.49;100.00
55679;BME280;41573;51.446;-2.018;2023-07-24T11:22:07;99898.25;;;17.51;100.00
55679;BME280;41573;51.446;-2.018;2023-07-24T11:24:33;99902.63;;;17.52;100.00
55679;BME280;41573;51.446;-2.018;2023-07-24T11:26:58;99897.09;;;17.53;100.00
55679;BME280;41573;51.446;-2.018;2023-07-24T11:29:23;99910.88;;;17.50;100.00
55679;BME280;41573;51.446;-2.018;2023-07-24T11:31:55;99914.38;;;17.51;100.00
55679;BME280;41573;51.446;-2.018;2023-07-24T11:34:22;99915.09;;;17.35;100.00
55679;BME280;41573;51.446;-2.018;2023-07-24T11:36:48;99922.00;;;17.37;100.00
55679;BME280;41573;51.446;-2.018;2023-07-24T11:39:13;99921.59;;;17.32;100.00
55679;BME280;41573;51.446;-2.018;2023-07-24T11:41:39;99924.63;;;17.29;100.00
55679;BME280;41573;51.446;-2.018;2023-07-24T11:44:05;99927.63;;;17.44;100.00
55679;BME280;41573;51.446;-2.018;2023-07-24T11:46:31;99931.84;;;17.47;100.00
55679;BME280;41573;51.446;-2.018;2023-07-24T11:48:57;99928.47;;;17.45;100.00
55679;BME280;41573;51.446;-2.018;2023-07-24T11:51:24;99934.06;;;17.33;100.00
55679;BME280;41573;51.446;-2.018;2023-07-24T11:53:51;99933.91;;;17.35;100.00
55679;BME280;41573;51.446;-2.018;2023-07-24T11:56:17;99931.63;;;17.40;100.00
55679;BME280;41573;51.446;-2.018;2023-07-24T11:58:44;99942.34;;;17.50;100.00
55679;BME280;41573;51.446;-2.018;2023-07-24T12:01:12;99937.47;;;17.53;100.00
55679;BME280;41573;51.446;-2.018;2023-07-24T12:03:37;99936.63;;;17.53;100.00
55679;BME280;41573;51.446;-2.018;2023-07-24T12:06:02;99940.16;;;17.71;100.00
55679;BME280;41573;51.446;-2.018;2023-07-24T12:08:31;99945.63;;;17.80;100.00
55679;BME280;41573;51.446;-2.018;2023-07-24T12:10:57;99946.31;;;17.82;100.00
55679;BME280;41573;51.446;-2.018;2023-07-24T12:13:23;99945.94;;;17.95;100.00
55679;BME280;41573;51.446;-2.018;2023-07-24T12:15:48;99943.09;;;17.96;100.00
55679;BME280;41573;51.446;-2.018;2023-07-24T12:18:14;99950.56;;;18.02;100.00
55679;BME280;41573;51.446;-2.018;2023-07-24T12:20:40;99949.88;;;18.00;100.00
55679;BME280;41573;51.446;-2.018;2023-07-24T12:23:05;99947.97;;;17.92;100.00
55679;BME280;41573;51.446;-2.018;2023-07-24T12:25:31;99959.78;;;17.82;100.00
55679;BME280;41573;51.446;-2.018;2023-07-24T12:27:56;99969.25;;;17.86;100.00
55679;BME280;41573;51.446;-2.018;2023-07-24T12:30:22;99965.63;;;17.95;100.00
55679;BME280;41573;51.446;-2.018;2023-07-24T12:32:47;99972.13;;;18.02;100.00
55679;BME280;41573;51.446;-2.018;2023-07-24T12:35:12;99969.63;;;18.09;100.00
55679;BME280;41573;51.446;-2.018;2023-07-24T12:37:38;99966.78;;;18.11;100.00
55679;BME280;41573;51.446;-2.018;2023-07-24T12:40:07;99961.94;;;18.14;100.00
55679;BME280;41573;51.446;-2.018;2023-07-24T12:42:33;99968.16;;;18.15;100.00